sensor_id;sensor_type;location;lat;lon;timestamp;pressure;altitude;pressure_sealevel;temperature;humidity
27304;BME280;14791;52.392;13.092;2023-02-27T00:00:15;102251.61;;;6.16;44.04
27304;BME280;14791;52.392;13.092;2023-02-27T00:02:46;102254.28;;;6.15;44.06
27304;BME280;14791;52.392;13.092;2023-02-27T00:05:16;102260.05;;;6.14;44.08
27304;BME280;14791;52.392;13.092;2023-02-27T00:07:45;102249.50;;;6.11;44.06
27304;BME280;14791;52.392;13.092;2023-02-27T00:10:14;102246.84;;;6.11;44.10
27304;BME280;14791;52.392;13.092;2023-02-27T00:12:43;102250.39;;;6.10;44.07
27304;BME280;14791;52.392;13.092;2023-02-27T00:15:20;102249.57;;;6.08;44.09
27304;BME280;14791;52.392;13.092;2023-02-27T00:17:45;102254.89;;;6.07;44.16
27304;BME280;14791;52.392;13.092;2023-02-27T00:20:15;102249.20;;;6.04;44.25
27304;BME280;14791;52.392;13.092;2023-02-27T00:22:45;102254.52;;;6.03;44.28
27304;BME280;14791;52.392;13.092;2023-02-27T00:25:14;102253.72;;;5.99;44.31
27304;BME280;14791;52.392;13.092;2023-02-27T00:27:43;102255.04;;;5.99;44.36
27304;BME280;14791;52.392;13.092;2023-02-27T00:30:14;102254.59;;;5.98;44.42
27304;BME280;14791;52.392;13.092;2023-02-27T00:32:43;102250.21;;;5.97;44.40
27304;BME280;14791;52.392;13.092;2023-02-27T00:35:12;102242.27;;;5.95;44.44
27304;BME280;14791;52.392;13.092;2023-02-27T00:37:41;102247.58;;;5.95;44.45
27304;BME280;14791;52.392;13.092;2023-02-27T00:40:11;102244.49;;;5.93;44.46
27304;BME280;14791;52.392;13.092;2023-02-27T00:42:40;102244.55;;;5.91;44.46
27304;BME280;14791;52.392;13.092;2023-02-27T00:45:11;102245.03;;;5.88;44.44
27304;BME280;14791;52.392;13.092;2023-02-27T00:47:40;102250.86;;;5.84;44.48
27304;BME280;14791;52.392;13.092;2023-02-27T00:50:09;102251.76;;;5.82;44.56
27304;BME280;14791;52.392;13.092;2023-02-27T00:52:38;102244.33;;;5.78;44.55
27304;BME280;14791;52.392;13.092;2023-02-27T00:55:09;102247.05;;;5.75;44.62
27304;BME280;14791;52.392;13.092;2023-02-27T00:57:38;102251.03;;;5.73;44.66
27304;BME280;14791;52.392;13.092;2023-02-27T01:00:08;102246.20;;;5.71;44.69
27304;BME280;14791;52.392;13.092;2023-02-27T01:02:38;102247.12;;;5.70;44.67
27304;BME280;14791;52.392;13.092;2023-02-27T01:05:08;102242.29;;;5.68;44.68
27304;BME280;14791;52.392;13.092;2023-02-27T01:07:38;102245.39;;;5.68;44.71
27304;BME280;14791;52.392;13.092;2023-02-27T01:10:09;102242.76;;;5.66;44.74
27304;BME280;14791;52.392;13.092;2023-02-27T01:12:38;102239.70;;;5.65;44.75
27304;BME280;14791;52.392;13.092;2023-02-27T01:15:08;102239.31;;;5.61;44.73
27304;BME280;14791;52.392;13.092;2023-02-27T01:17:38;102245.95;;;5.61;44.79
27304;BME280;14791;52.392;13.092;2023-02-27T01:20:09;102242.84;;;5.60;44.82
27304;BME280;14791;52.392;13.092;2023-02-27T01:22:38;102240.70;;;5.58;44.88
27304;BME280;14791;52.392;13.092;2023-02-27T01:25:08;102241.19;;;5.54;44.91
27304;BME280;14791;52.392;13.092;2023-02-27T01:27:39;102241.20;;;5.53;44.96
27304;BME280;14791;52.392;13.092;2023-02-27T01:30:09;102240.80;;;5.50;44.97
27304;BME280;14791;52.392;13.092;2023-02-27T01:32:44;102234.64;;;5.50;44.94
27304;BME280;14791;52.392;13.092;2023-02-27T01:35:13;102239.53;;;5.49;44.96
27304;BME280;14791;52.392;13.092;2023-02-27T01:37:42;102238.23;;;5.46;44.97
27304;BME280;14791;52.392;13.092;2023-02-27T01:40:12;102237.43;;;5.41;45.00
27304;BME280;14791;52.392;13.092;2023-02-27T01:42:41;102237.55;;;5.35;45.10
27304;BME280;14791;52.392;13.092;2023-02-27T01:47:46;102234.63;;;5.24;45.29
27304;BME280;14791;52.392;13.092;2023-02-27T01:50:14;102231.14;;;5.19;45.40
27304;BME280;14791;52.392;13.092;2023-02-27T01:52:47;102225.91;;;5.16;45.51
27304;BME280;14791;52.392;13.092;2023-02-27T01:55:16;102237.41;;;5.15;45.60
27304;BME280;14791;52.392;13.092;2023-02-27T01:57:47;102236.97;;;5.14;45.67
27304;BME280;14791;52.392;13.092;2023-02-27T02:00:17;102227.70;;;5.14;45.69
27304;BME280;14791;52.392;13.092;2023-02-27T02:02:57;102234.78;;;5.14;45.71
27304;BME280;14791;52.392;13.092;2023-02-27T02:05:21;102232.12;;;5.15;45.70
27304;BME280;14791;52.392;13.092;2023-02-27T02:07:51;102233.86;;;5.15;45.75
27304;BME280;14791;52.392;13.092;2023-02-27T02:10:21;102237.41;;;5.15;45.76
27304;BME280;14791;52.392;13.092;2023-02-27T02:12:50;102234.77;;;5.15;45.76
27304;BME280;14791;52.392;13.092;2023-02-27T02:15:21;102243.59;;;5.14;45.79
27304;BME280;14791;52.392;13.092;2023-02-27T02:18:13;102235.23;;;5.13;45.79
27304;BME280;14791;52.392;13.092;2023-02-27T02:21:17;102240.09;;;5.12;45.79
27304;BME280;14791;52.392;13.092;2023-02-27T02:27:02;102242.91;;;5.01;45.84
27304;BME280;14791;52.392;13.092;2023-02-27T02:29:30;102245.62;;;4.97;45.95
27304;BME280;14791;52.392;13.092;2023-02-27T02:32:12;102241.24;;;4.94;46.01
27304;BME280;14791;52.392;13.092;2023-02-27T02:43:34;102240.56;;;4.80;46.27
27304;BME280;14791;52.392;13.092;2023-02-27T02:51:35;102251.67;;;4.73;46.40
27304;BME280;14791;52.392;13.092;2023-02-27T02:57:28;102252.59;;;4.71;46.46
27304;BME280;14791;52.392;13.092;2023-02-27T03:02:48;102250.92;;;4.63;46.69
27304;BME280;14791;52.392;13.092;2023-02-27T03:05:23;102250.92;;;4.62;46.75
27304;BME280;14791;52.392;13.092;2023-02-27T03:08:04;102254.02;;;4.63;46.79
27304;BME280;14791;52.392;13.092;2023-02-27T03:10:42;102254.44;;;4.64;46.74
27304;BME280;14791;52.392;13.092;2023-02-27T03:13:20;102262.37;;;4.65;46.75
27304;BME280;14791;52.392;13.092;2023-02-27T03:15:53;102255.30;;;4.66;46.77
27304;BME280;14791;52.392;13.092;2023-02-27T03:18:23;102258.80;;;4.68;46.75
27304;BME280;14791;52.392;13.092;2023-02-27T03:20:57;102264.09;;;4.68;46.74
27304;BME280;14791;52.392;13.092;2023-02-27T03:23:29;102260.13;;;4.68;46.74
27304;BME280;14791;52.392;13.092;2023-02-27T03:25:59;102270.77;;;4.65;46.77
27304;BME280;14791;52.392;13.092;2023-02-27T03:28:31;102266.81;;;4.62;46.82
27304;BME280;14791;52.392;13.092;2023-02-27T03:31:05;102269.05;;;4.59;46.90
27304;BME280;14791;52.392;13.092;2023-02-27T03:33:49;102274.39;;;4.55;46.99
27304;BME280;14791;52.392;13.092;2023-02-27T03:36:25;102273.56;;;4.53;47.09
27304;BME280;14791;52.392;13.092;2023-02-27T03:39:03;102283.70;;;4.52;47.16
27304;BME280;14791;52.392;13.092;2023-02-27T03:41:40;102277.95;;;4.52;47.15
27304;BME280;14791;52.392;13.092;2023-02-27T03:44:27;102284.63;;;4.47;47.16
27304;BME280;14791;52.392;13.092;2023-02-27T03:46:55;102292.15;;;4.46;47.19
27304;BME280;14791;52.392;13.092;2023-02-27T03:49:24;102290.41;;;4.44;47.20
27304;BME280;14791;52.392;13.092;2023-02-27T03:51:53;102293.52;;;4.43;47.21
27304;BME280;14791;52.392;13.092;2023-02-27T03:54:34;102291.75;;;4.42;47.22
27304;BME280;14791;52.392;13.092;2023-02-27T03:57:03;102296.62;;;4.41;47.24
27304;BME280;14791;52.392;13.092;2023-02-27T03:59:33;102296.66;;;4.38;47.29
27304;BME280;14791;52.392;13.092;2023-02-27T04:02:04;102296.22;;;4.37;47.35
27304;BME280;14791;52.392;13.092;2023-02-27T04:04:34;102295.80;;;4.36;47.37
27304;BME280;14791;52.392;13.092;2023-02-27T04:13:14;102302.92;;;4.30;47.58
27304;BME280;14791;52.392;13.092;2023-02-27T04:22:19;102306.52;;;4.21;47.73
27304;BME280;14791;52.392;13.092;2023-02-27T04:25:20;102300.86;;;4.17;47.77
27304;BME280;14791;52.392;13.092;2023-02-27T04:27:52;102304.41;;;4.13;47.82
27304;BME280;14791;52.392;13.092;2023-02-27T04:35:50;102321.61;;;4.13;47.87
27304;BME280;14791;52.392;13.092;2023-02-27T04:38:28;102322.47;;;4.15;47.87
27304;BME280;14791;52.392;13.092;2023-02-27T04:41:00;102329.54;;;4.13;47.89
27304;BME280;14791;52.392;13.092;2023-02-27T04:43:30;102329.95;;;4.14;47.92
27304;BME280;14791;52.392;13.092;2023-02-27T04:46:02;102330.83;;;4.16;47.89
27304;BME280;14791;52.392;13.092;2023-02-27T04:48:45;102333.43;;;4.19;47.89
27304;BME280;14791;52.392;13.092;2023-02-27T04:51:10;102332.97;;;4.21;47.85
27304;BME280;14791;52.392;13.092;2023-02-27T04:53:53;102334.75;;;4.22;47.83
27304;BME280;14791;52.392;13.092;2023-02-27T04:56:31;102322.39;;;4.22;47.87
27304;BME280;14791;52.392;13.092;2023-02-27T04:59:07;102340.03;;;4.22;47.89
27304;BME280;14791;52.392;13.092;2023-02-27T05:01:38;102340.91;;;4.21;47.92
27304;BME280;14791;52.392;13.092;2023-02-27T05:04:09;102343.14;;;4.20;47.95
27304;BME280;14791;52.392;13.092;2023-02-27T05:06:41;102342.69;;;4.20;47.97
27304;BME280;14791;52.392;13.092;2023-02-27T05:12:00;102335.20;;;4.20;48.00
27304;BME280;14791;52.392;13.092;2023-02-27T05:14:35;102340.95;;;4.18;48.00
27304;BME280;14791;52.392;13.092;2023-02-27T05:20:04;102343.63;;;4.15;48.10
27304;BME280;14791;52.392;13.092;2023-02-27T05:25:48;102342.35;;;4.09;48.21
27304;BME280;14791;52.392;13.092;2023-02-27T05:28:19;102337.52;;;4.07;48.26
27304;BME280;14791;52.392;13.092;2023-02-27T05:33:48;102338.46;;;4.01;48.32
27304;BME280;14791;52.392;13.092;2023-02-27T05:39:08;102340.27;;;3.94;48.38
27304;BME280;14791;52.392;13.092;2023-02-27T05:41:53;102338.08;;;3.94;48.40
27304;BME280;14791;52.392;13.092;2023-02-27T05:44:36;102333.24;;;3.93;48.39
27304;BME280;14791;52.392;13.092;2023-02-27T05:47:08;102335.89;;;3.93;48.38
27304;BME280;14791;52.392;13.092;2023-02-27T05:49:42;102344.69;;;3.92;48.39
27304;BME280;14791;52.392;13.092;2023-02-27T05:52:14;102344.23;;;3.94;48.37
27304;BME280;14791;52.392;13.092;2023-02-27T05:54:47;102346.43;;;3.95;48.36
27304;BME280;14791;52.392;13.092;2023-02-27T05:57:19;102349.08;;;3.96;48.30
27304;BME280;14791;52.392;13.092;2023-02-27T05:59:59;102350.40;;;3.98;48.24
27304;BME280;14791;52.392;13.092;2023-02-27T06:02:30;102364.91;;;3.99;48.21
27304;BME280;14791;52.392;13.092;2023-02-27T06:04:59;102371.09;;;3.98;48.28
27304;BME280;14791;52.392;13.092;2023-02-27T06:07:30;102374.61;;;4.00;48.30
27304;BME280;14791;52.392;13.092;2023-02-27T06:09:59;102379.87;;;4.03;48.31
27304;BME280;14791;52.392;13.092;2023-02-27T06:12:28;102375.48;;;4.02;48.32
27304;BME280;14791;52.392;13.092;2023-02-27T06:14:57;102374.16;;;4.02;48.32
27304;BME280;14791;52.392;13.092;2023-02-27T06:17:26;102389.58;;;4.01;48.34
27304;BME280;14791;52.392;13.092;2023-02-27T06:19:55;102399.73;;;3.99;48.40
27304;BME280;14791;52.392;13.092;2023-02-27T06:22:24;102402.38;;;3.99;48.51
27304;BME280;14791;52.392;13.092;2023-02-27T06:24:53;102400.19;;;4.00;48.60
27304;BME280;14791;52.392;13.092;2023-02-27T06:27:22;102398.38;;;4.02;48.64
27304;BME280;14791;52.392;13.092;2023-02-27T06:29:51;102396.15;;;4.04;48.69
27304;BME280;14791;52.392;13.092;2023-02-27T06:32:20;102404.50;;;4.09;48.67
27304;BME280;14791;52.392;13.092;2023-02-27T06:34:52;102405.79;;;4.12;48.67
27304;BME280;14791;52.392;13.092;2023-02-27T06:37:22;102411.53;;;4.14;48.68
27304;BME280;14791;52.392;13.092;2023-02-27T06:39:51;102409.30;;;4.17;48.69
27304;BME280;14791;52.392;13.092;2023-02-27T06:42:20;102412.36;;;4.19;48.74
27304;BME280;14791;52.392;13.092;2023-02-27T06:44:49;102418.04;;;4.23;48.73
27304;BME280;14791;52.392;13.092;2023-02-27T06:47:18;102410.10;;;4.25;48.66
27304;BME280;14791;52.392;13.092;2023-02-27T06:49:47;102410.52;;;4.26;48.61
27304;BME280;14791;52.392;13.092;2023-02-27T06:52:15;102414.07;;;4.26;48.58
27304;BME280;14791;52.392;13.092;2023-02-27T06:54:44;102412.29;;;4.27;48.62
27304;BME280;14791;52.392;13.092;2023-02-27T06:57:13;102413.16;;;4.29;48.61
27304;BME280;14791;52.392;13.092;2023-02-27T06:59:42;102399.10;;;4.24;48.61
27304;BME280;14791;52.392;13.092;2023-02-27T07:02:13;102409.20;;;4.28;48.64
27304;BME280;14791;52.392;13.092;2023-02-27T07:04:42;102407.87;;;4.29;48.61
27304;BME280;14791;52.392;13.092;2023-02-27T07:07:12;102404.36;;;4.27;48.63
27304;BME280;14791;52.392;13.092;2023-02-27T07:09:41;102401.30;;;4.24;48.69
27304;BME280;14791;52.392;13.092;2023-02-27T07:12:10;102399.97;;;4.24;48.74
27304;BME280;14791;52.392;13.092;2023-02-27T07:14:39;102411.42;;;4.25;48.82
27304;BME280;14791;52.392;13.092;2023-02-27T07:17:08;102410.97;;;4.27;48.89
27304;BME280;14791;52.392;13.092;2023-02-27T07:19:37;102415.80;;;4.29;48.93
27304;BME280;14791;52.392;13.092;2023-02-27T07:22:06;102425.45;;;4.33;48.98
27304;BME280;14791;52.392;13.092;2023-02-27T07:24:36;102436.45;;;4.37;48.99
27304;BME280;14791;52.392;13.092;2023-02-27T07:27:05;102450.97;;;4.42;48.97
27304;BME280;14791;52.392;13.092;2023-02-27T07:29:34;102457.09;;;4.48;49.02
27304;BME280;14791;52.392;13.092;2023-02-27T07:32:03;102457.02;;;4.55;49.04
27304;BME280;14791;52.392;13.092;2023-02-27T07:34:32;102449.03;;;4.61;49.09
27304;BME280;14791;52.392;13.092;2023-02-27T07:37:01;102446.34;;;4.67;49.09
27304;BME280;14791;52.392;13.092;2023-02-27T07:39:30;102445.84;;;4.72;49.15
27304;BME280;14791;52.392;13.092;2023-02-27T07:41:59;102450.64;;;4.77;49.20
27304;BME280;14791;52.392;13.092;2023-02-27T07:44:28;102441.29;;;4.83;49.27
27304;BME280;14791;52.392;13.092;2023-02-27T07:46:57;102439.91;;;4.89;49.31
27304;BME280;14791;52.392;13.092;2023-02-27T07:49:26;102441.59;;;4.98;49.31
27304;BME280;14791;52.392;13.092;2023-02-27T07:51:55;102441.50;;;5.06;49.28
27304;BME280;14791;52.392;13.092;2023-02-27T07:54:24;102447.62;;;5.11;49.34
27304;BME280;14791;52.392;13.092;2023-02-27T07:56:54;102460.31;;;5.21;49.41
27304;BME280;14791;52.392;13.092;2023-02-27T07:59:23;102466.38;;;5.29;49.42
27304;BME280;14791;52.392;13.092;2023-02-27T08:01:52;102464.94;;;5.41;49.40
27304;BME280;14791;52.392;13.092;2023-02-27T08:04:21;102462.13;;;5.50;49.39
27304;BME280;14791;52.392;13.092;2023-02-27T08:06:50;102465.98;;;5.61;49.34
27304;BME280;14791;52.392;13.092;2023-02-27T08:09:19;102463.22;;;5.70;49.30
27304;BME280;14791;52.392;13.092;2023-02-27T08:11:47;102475.02;;;5.80;49.27
27304;BME280;14791;52.392;13.092;2023-02-27T08:14:16;102476.65;;;5.88;49.21
27304;BME280;14791;52.392;13.092;2023-02-27T08:16:45;102475.69;;;5.97;49.12
27304;BME280;14791;52.392;13.092;2023-02-27T08:19:14;102471.13;;;6.05;49.11
27304;BME280;14791;52.392;13.092;2023-02-27T08:21:43;102470.98;;;6.14;49.17
27304;BME280;14791;52.392;13.092;2023-02-27T08:24:12;102479.68;;;6.24;49.20
27304;BME280;14791;52.392;13.092;2023-02-27T08:26:41;102485.72;;;6.34;49.20
27304;BME280;14791;52.392;13.092;2023-02-27T08:29:10;102470.09;;;6.44;49.08
27304;BME280;14791;52.392;13.092;2023-02-27T08:31:39;102474.79;;;6.54;49.00
27304;BME280;14791;52.392;13.092;2023-02-27T08:34:08;102468.42;;;6.63;48.97
27304;BME280;14791;52.392;13.092;2023-02-27T08:36:37;102476.23;;;6.72;48.95
27304;BME280;14791;52.392;13.092;2023-02-27T08:39:06;102474.33;;;6.80;48.91
27304;BME280;14791;52.392;13.092;2023-02-27T08:41:36;102480.36;;;6.88;48.90
27304;BME280;14791;52.392;13.092;2023-02-27T08:44:05;102484.20;;;6.96;48.89
27304;BME280;14791;52.392;13.092;2023-02-27T08:46:34;102487.63;;;7.02;48.84
27304;BME280;14791;52.392;13.092;2023-02-27T08:49:03;102470.22;;;7.09;48.71
27304;BME280;14791;52.392;13.092;2023-02-27T08:51:32;102473.23;;;7.14;48.65
27304;BME280;14791;52.392;13.092;2023-02-27T08:54:01;102471.85;;;7.16;48.65
27304;BME280;14791;52.392;13.092;2023-02-27T08:56:30;102470.94;;;7.18;48.73
27304;BME280;14791;52.392;13.092;2023-02-27T08:59:01;102472.66;;;7.21;48.78
27304;BME280;14791;52.392;13.092;2023-02-27T09:01:30;102474.81;;;7.23;48.82
27304;BME280;14791;52.392;13.092;2023-02-27T09:04:02;102473.39;;;7.28;48.85
27304;BME280;14791;52.392;13.092;2023-02-27T09:06:34;102475.06;;;7.33;48.93
27304;BME280;14791;52.392;13.092;2023-02-27T09:09:03;102477.17;;;7.38;48.94
27304;BME280;14791;52.392;13.092;2023-02-27T09:11:33;102486.70;;;7.49;48.82
27304;BME280;14791;52.392;13.092;2023-02-27T09:14:02;102480.83;;;7.54;48.76
27304;BME280;14791;52.392;13.092;2023-02-27T09:16:31;102482.94;;;7.59;48.74
27304;BME280;14791;52.392;13.092;2023-02-27T09:19:00;102486.78;;;7.66;48.82
27304;BME280;14791;52.392;13.092;2023-02-27T09:21:28;102486.61;;;7.74;48.74
27304;BME280;14791;52.392;13.092;2023-02-27T09:23:58;102485.59;;;7.80;48.63
27304;BME280;14791;52.392;13.092;2023-02-27T09:26:27;102489.07;;;7.83;48.52
27304;BME280;14791;52.392;13.092;2023-02-27T09:28:56;102491.63;;;7.88;48.60
27304;BME280;14791;52.392;13.092;2023-02-27T09:31:25;102491.48;;;7.94;48.73
27304;BME280;14791;52.392;13.092;2023-02-27T09:33:55;102497.05;;;8.03;48.76
27304;BME280;14791;52.392;13.092;2023-02-27T09:36:24;102502.59;;;8.12;48.67
27304;BME280;14791;52.392;13.092;2023-02-27T09:38:53;102497.97;;;8.21;48.64
27304;BME280;14791;52.392;13.092;2023-02-27T09:44:22;102502.88;;;8.38;48.56
27304;BME280;14791;52.392;13.092;2023-02-27T09:46:51;102513.86;;;8.44;48.55
27304;BME280;14791;52.392;13.092;2023-02-27T09:49:23;102507.87;;;8.52;48.37
27304;BME280;14791;52.392;13.092;2023-02-27T09:51:53;102512.98;;;8.61;48.33
27304;BME280;14791;52.392;13.092;2023-02-27T09:54:23;102512.78;;;8.69;48.28
27304;BME280;14791;52.392;13.092;2023-02-27T09:57:01;102507.22;;;8.78;48.19
27304;BME280;14791;52.392;13.092;2023-02-27T09:59:34;102510.52;;;8.88;48.19
27304;BME280;14791;52.392;13.092;2023-02-27T10:07:36;102522.19;;;9.16;48.11
27304;BME280;14791;52.392;13.092;2023-02-27T10:10:18;102523.27;;;9.26;48.01
27304;BME280;14791;52.392;13.092;2023-02-27T10:15:36;102515.16;;;9.45;47.89
27304;BME280;14791;52.392;13.092;2023-02-27T10:18:18;102522.97;;;9.53;47.77
27304;BME280;14791;52.392;13.092;2023-02-27T10:20:50;102520.01;;;9.62;47.63
27304;BME280;14791;52.392;13.092;2023-02-27T10:26:29;102525.95;;;9.72;47.33
27304;BME280;14791;52.392;13.092;2023-02-27T10:28:53;102531.62;;;9.76;47.47
27304;BME280;14791;52.392;13.092;2023-02-27T10:31:24;102520.34;;;9.81;47.33
27304;BME280;14791;52.392;13.092;2023-02-27T10:33:56;102531.68;;;9.89;47.10
27304;BME280;14791;52.392;13.092;2023-02-27T10:36:26;102528.34;;;9.96;46.88
27304;BME280;14791;52.392;13.092;2023-02-27T10:38:58;102524.13;;;10.04;46.87
27304;BME280;14791;52.392;13.092;2023-02-27T10:41:28;102523.91;;;10.10;46.80
27304;BME280;14791;52.392;13.092;2023-02-27T10:43:59;102525.94;;;10.16;46.79
27304;BME280;14791;52.392;13.092;2023-02-27T10:46:30;102529.19;;;10.26;46.79
27304;BME280;14791;52.392;13.092;2023-02-27T10:49:00;102530.67;;;10.36;46.75
27304;BME280;14791;52.392;13.092;2023-02-27T10:51:33;102534.34;;;10.47;46.70
27304;BME280;14791;52.392;13.092;2023-02-27T10:56:57;102532.66;;;10.71;46.59
27304;BME280;14791;52.392;13.092;2023-02-27T10:59:38;102519.18;;;10.88;46.09
27304;BME280;14791;52.392;13.092;2023-02-27T11:04:52;102521.23;;;10.93;46.02
27304;BME280;14791;52.392;13.092;2023-02-27T11:07:33;102511.83;;;10.94;46.03
27304;BME280;14791;52.392;13.092;2023-02-27T11:12:42;102512.45;;;11.14;45.72
27304;BME280;14791;52.392;13.092;2023-02-27T11:15:20;102520.62;;;11.23;45.47
27304;BME280;14791;52.392;13.092;2023-02-27T11:17:49;102507.35;;;11.32;45.23
27304;BME280;14791;52.392;13.092;2023-02-27T11:20:35;102494.75;;;11.35;44.97
27304;BME280;14791;52.392;13.092;2023-02-27T11:23:23;102503.70;;;11.46;44.66
27304;BME280;14791;52.392;13.092;2023-02-27T11:26:08;102506.67;;;11.50;44.29
27304;BME280;14791;52.392;13.092;2023-02-27T11:28:29;102509.36;;;11.50;44.06
27304;BME280;14791;52.392;13.092;2023-02-27T11:31:03;102512.03;;;11.50;43.69
27304;BME280;14791;52.392;13.092;2023-02-27T11:33:38;102498.05;;;11.42;43.35
27304;BME280;14791;52.392;13.092;2023-02-27T11:36:08;102499.38;;;11.42;43.26
27304;BME280;14791;52.392;13.092;2023-02-27T11:38:37;102508.05;;;11.37;43.37
27304;BME280;14791;52.392;13.092;2023-02-27T11:41:08;102508.52;;;11.36;43.53
27304;BME280;14791;52.392;13.092;2023-02-27T11:43:51;102508.17;;;11.34;43.63
27304;BME280;14791;52.392;13.092;2023-02-27T11:46:23;102509.86;;;11.36;43.51
27304;BME280;14791;52.392;13.092;2023-02-27T11:49:19;102508.69;;;11.32;43.78
27304;BME280;14791;52.392;13.092;2023-02-27T11:57:19;102502.52;;;11.29;43.21
27304;BME280;14791;52.392;13.092;2023-02-27T11:59:57;102498.85;;;11.32;43.14
27304;BME280;14791;52.392;13.092;2023-02-27T12:05:19;102497.47;;;11.34;42.82
27304;BME280;14791;52.392;13.092;2023-02-27T12:08:09;102498.77;;;11.35;42.67
27304;BME280;14791;52.392;13.092;2023-02-27T12:10:40;102490.39;;;11.33;42.49
27304;BME280;14791;52.392;13.092;2023-02-27T12:13:35;102490.39;;;11.33;42.49
27304;BME280;14791;52.392;13.092;2023-02-27T12:15:57;102486.38;;;11.33;42.23
27304;BME280;14791;52.392;13.092;2023-02-27T12:18:44;102485.44;;;11.34;42.28
27304;BME280;14791;52.392;13.092;2023-02-27T12:22:02;102485.66;;;11.39;42.35
27304;BME280;14791;52.392;13.092;2023-02-27T12:23:52;102483.63;;;11.46;42.32
27304;BME280;14791;52.392;13.092;2023-02-27T12:29:16;102488.34;;;11.75;41.49
27304;BME280;14791;52.392;13.092;2023-02-27T12:37:03;102493.49;;;11.93;41.50
27304;BME280;14791;52.392;13.092;2023-02-27T12:39:33;102492.18;;;12.03;41.28
27304;BME280;14791;52.392;13.092;2023-02-27T12:42:16;102496.17;;;12.15;41.27
27304;BME280;14791;52.392;13.092;2023-02-27T12:47:36;102495.30;;;12.36;40.98
27304;BME280;14791;52.392;13.092;2023-02-27T12:56:10;102490.05;;;12.75;40.84
27304;BME280;14791;52.392;13.092;2023-02-27T12:58:39;102481.56;;;12.86;40.82
27304;BME280;14791;52.392;13.092;2023-02-27T13:06:50;102495.16;;;13.02;39.67
27304;BME280;14791;52.392;13.092;2023-02-27T13:12:11;102500.99;;;13.02;40.50
27304;BME280;14791;52.392;13.092;2023-02-27T13:15:03;102501.08;;;13.00;39.33
27304;BME280;14791;52.392;13.092;2023-02-27T13:17:55;102504.08;;;12.92;38.95
27304;BME280;14791;52.392;13.092;2023-02-27T13:23:15;102503.94;;;12.75;39.14
27304;BME280;14791;52.392;13.092;2023-02-27T13:25:46;102505.42;;;12.72;38.86
27304;BME280;14791;52.392;13.092;2023-02-27T13:28:20;102505.42;;;12.72;38.80
27304;BME280;14791;52.392;13.092;2023-02-27T13:31:03;102506.28;;;12.72;38.62
27304;BME280;14791;52.392;13.092;2023-02-27T13:33:37;102504.95;;;12.72;38.50
27304;BME280;14791;52.392;13.092;2023-02-27T13:36:11;102502.73;;;12.72;38.51
27304;BME280;14791;52.392;13.092;2023-02-27T13:38:47;102509.92;;;12.71;38.62
27304;BME280;14791;52.392;13.092;2023-02-27T13:46:32;102505.27;;;12.65;38.00
27304;BME280;14791;52.392;13.092;2023-02-27T13:51:49;102500.16;;;12.59;37.86
27304;BME280;14791;52.392;13.092;2023-02-27T13:54:23;102501.22;;;12.54;37.95
27304;BME280;14791;52.392;13.092;2023-02-27T13:59:35;102501.88;;;12.49;38.07
27304;BME280;14791;52.392;13.092;2023-02-27T14:04:52;102501.59;;;12.57;38.20
27304;BME280;14791;52.392;13.092;2023-02-27T14:07:27;102506.62;;;12.65;38.23
27304;BME280;14791;52.392;13.092;2023-02-27T14:10:07;102499.05;;;12.74;38.38
27304;BME280;14791;52.392;13.092;2023-02-27T14:12:40;102499.47;;;12.86;38.05
27304;BME280;14791;52.392;13.092;2023-02-27T14:17:54;102501.14;;;12.98;37.59
27304;BME280;14791;52.392;13.092;2023-02-27T14:23:18;102505.11;;;13.00;37.33
27304;BME280;14791;52.392;13.092;2023-02-27T14:26:10;102506.03;;;12.99;37.36
27304;BME280;14791;52.392;13.092;2023-02-27T14:28:49;102506.23;;;12.94;37.30
27304;BME280;14791;52.392;13.092;2023-02-27T14:31:31;102510.05;;;12.89;37.24
27304;BME280;14791;52.392;13.092;2023-02-27T14:34:02;102510.73;;;12.84;37.20
27304;BME280;14791;52.392;13.092;2023-02-27T14:37:12;102511.45;;;12.77;37.32
27304;BME280;14791;52.392;13.092;2023-02-27T14:39:35;102518.35;;;12.72;37.13
27304;BME280;14791;52.392;13.092;2023-02-27T14:44:59;102516.05;;;12.63;37.15
27304;BME280;14791;52.392;13.092;2023-02-27T14:47:36;102520.88;;;12.55;37.31
27304;BME280;14791;52.392;13.092;2023-02-27T14:52:58;102525.61;;;12.48;36.92
27304;BME280;14791;52.392;13.092;2023-02-27T14:55:31;102533.45;;;12.43;36.98
27304;BME280;14791;52.392;13.092;2023-02-27T14:58:14;102529.05;;;12.40;37.02
27304;BME280;14791;52.392;13.092;2023-02-27T15:00:47;102530.05;;;12.38;36.81
27304;BME280;14791;52.392;13.092;2023-02-27T15:03:21;102533.87;;;12.32;36.72
27304;BME280;14791;52.392;13.092;2023-02-27T15:05:53;102539.59;;;12.23;36.91
27304;BME280;14791;52.392;13.092;2023-02-27T15:08:27;102539.59;;;12.23;36.91
27304;BME280;14791;52.392;13.092;2023-02-27T15:10:58;102537.57;;;12.18;36.73
27304;BME280;14791;52.392;13.092;2023-02-27T15:13:29;102547.99;;;12.13;36.64
27304;BME280;14791;52.392;13.092;2023-02-27T15:18:56;102546.56;;;12.05;36.45
27304;BME280;14791;52.392;13.092;2023-02-27T15:21:28;102545.63;;;11.94;36.87
27304;BME280;14791;52.392;13.092;2023-02-27T15:24:02;102538.20;;;11.90;36.77
27304;BME280;14791;52.392;13.092;2023-02-27T15:26:34;102541.44;;;11.87;36.82
27304;BME280;14791;52.392;13.092;2023-02-27T15:29:05;102554.63;;;11.80;36.81
27304;BME280;14791;52.392;13.092;2023-02-27T15:31:35;102554.63;;;11.80;36.81
27304;BME280;14791;52.392;13.092;2023-02-27T15:34:07;102547.53;;;11.79;36.76
27304;BME280;14791;52.392;13.092;2023-02-27T15:36:38;102555.14;;;11.78;36.60
27304;BME280;14791;52.392;13.092;2023-02-27T15:39:28;102547.23;;;11.75;36.46